Time;durP1;ratioP1;P1;durP2;ratioP2;P2;SDS_P1;SDS_P2;PMS_P1;PMS_P2;Temp;Humidity;BMP_temperature;BMP_pressure;BME280_temperature;BME280_humidity;BME280_pressure;Samples;Min_cycle;Max_cycle;Signal;HPM_P1;HPM_P2
2023/08/21 00:02:01;;;;;;;1.42;0.50;;;19.60;64.10;;;;;;4920112;29;20115;-74
2023/08/21 00:04:27;;;;;;;1.25;0.60;;;19.60;64.10;;;;;;4907335;29;20047;-74
2023/08/21 00:06:53;;;;;;;0.52;0.50;;;19.50;64.10;;;;;;4937410;29;20047;-74
2023/08/21 00:09:19;;;;;;;1.05;0.82;;;19.50;64.20;;;;;;4937554;29;20043;-74
2023/08/21 00:11:44;;;;;;;0.85;0.55;;;19.40;64.30;;;;;;4914776;29;20487;-74
2023/08/21 00:14:10;;;;;;;2.53;0.70;;;19.40;64.50;;;;;;4933914;29;20179;-74
2023/08/21 00:16:36;;;;;;;0.93;0.40;;;19.40;64.60;;;;;;4937145;28;20491;-73
2023/08/21 00:19:02;;;;;;;0.98;0.70;;;19.30;64.70;;;;;;4905627;29;20047;-73
2023/08/21 00:21:27;;;;;;;1.98;0.50;;;19.30;64.80;;;;;;4922212;29;20050;-74
2023/08/21 00:23:53;;;;;;;1.65;0.52;;;19.30;64.90;;;;;;4940768;29;20035;-74
2023/08/21 00:26:19;;;;;;;1.02;0.60;;;19.30;64.90;;;;;;4911110;29;20044;-74
2023/08/21 00:28:44;;;;;;;1.38;0.55;;;19.20;64.90;;;;;;4922052;29;20531;-74
2023/08/21 00:31:10;;;;;;;1.35;0.57;;;19.20;64.90;;;;;;4922270;29;20040;-74
2023/08/21 00:33:37;;;;;;;0.50;0.45;;;19.20;64.60;;;;;;4936632;29;20126;-74
2023/08/21 00:36:03;;;;;;;0.65;0.50;;;19.10;64.60;;;;;;4906658;29;20071;-74
2023/08/21 00:38:28;;;;;;;0.77;0.40;;;19.10;64.60;;;;;;4935929;29;20074;-74
2023/08/21 00:40:54;;;;;;;1.05;0.45;;;19.10;64.80;;;;;;4925069;29;20434;-74
2023/08/21 00:43:20;;;;;;;1.33;0.40;;;19.00;65.00;;;;;;4924753;29;20043;-74
2023/08/21 00:45:47;;;;;;;0.85;0.40;;;19.00;65.10;;;;;;4922479;29;20043;-74
2023/08/21 00:48:14;;;;;;;0.55;0.52;;;19.00;65.20;;;;;;4922353;29;20075;-74
2023/08/21 00:50:40;;;;;;;1.20;0.47;;;19.00;65.10;;;;;;4953212;28;20059;-74
2023/08/21 00:53:06;;;;;;;1.35;0.68;;;18.90;65.00;;;;;;4940735;29;20051;-74
2023/08/21 00:55:32;;;;;;;1.27;0.55;;;18.90;65.10;;;;;;4923945;29;20048;-73
2023/08/21 00:57:59;;;;;;;0.35;0.35;;;18.90;65.10;;;;;;4921683;29;20131;-75
2023/08/21 01:00:27;;;;;;;0.52;0.40;;;18.90;65.10;;;;;;4921550;29;20047;-75
2023/08/21 01:02:52;;;;;;;0.50;0.40;;;18.90;65.10;;;;;;4919219;29;20090;-75
2023/08/21 01:05:19;;;;;;;1.17;0.73;;;18.80;65.00;;;;;;4937922;29;20039;-75
2023/08/21 01:08:02;;;;;;;0.63;0.50;;;18.80;65.00;;;;;;4940590;29;20047;-74
2023/08/21 01:10:45;;;;;;;0.70;0.38;;;18.80;64.90;;;;;;4940450;29;20126;-75
2023/08/21 01:13:52;;;;;;;1.90;0.50;;;18.80;65.10;;;;;;4940099;29;20129;-75
2023/08/21 01:16:19;;;;;;;1.33;0.60;;;18.70;64.80;;;;;;4905630;29;20110;-75
2023/08/21 01:18:47;;;;;;;0.60;0.40;;;18.70;64.90;;;;;;4939876;29;20043;-75
2023/08/21 01:21:13;;;;;;;1.42;0.50;;;18.70;64.90;;;;;;4924680;28;20510;-75
2023/08/21 01:23:41;;;;;;;0.90;0.40;;;18.70;65.00;;;;;;4918422;29;20044;-75
2023/08/21 01:26:07;;;;;;;0.40;0.40;;;18.70;65.00;;;;;;4921219;29;20530;-75
2023/08/21 01:28:34;;;;;;;0.57;0.50;;;18.60;65.00;;;;;;4907559;29;20039;-75
2023/08/21 01:31:05;;;;;;;1.15;0.57;;;18.60;64.90;;;;;;4928683;29;20035;-75
2023/08/21 01:33:33;;;;;;;1.08;0.50;;;18.60;65.10;;;;;;4938663;29;20047;-75
2023/08/21 01:36:04;;;;;;;1.85;0.63;;;18.50;65.00;;;;;;4939876;29;20403;-75
2023/08/21 01:38:35;;;;;;;0.40;0.40;;;18.50;65.00;;;;;;4928975;29;20070;-75
2023/08/21 01:41:02;;;;;;;0.40;0.40;;;18.50;65.00;;;;;;4923914;29;20043;-75
2023/08/21 01:43:27;;;;;;;0.43;0.40;;;18.50;65.10;;;;;;4917611;29;20162;-75
2023/08/21 01:45:54;;;;;;;0.95;0.40;;;18.40;65.00;;;;;;4921005;29;20502;-75
2023/08/21 01:48:19;;;;;;;0.55;0.30;;;18.40;65.00;;;;;;4938180;28;20039;-75
2023/08/21 01:50:45;;;;;;;0.85;0.50;;;18.40;65.20;;;;;;4939507;29;20412;-75
2023/08/21 01:53:11;;;;;;;1.17;0.57;;;18.30;65.10;;;;;;4934093;29;20083;-75
2023/08/21 01:55:36;;;;;;;1.63;0.65;;;18.30;65.30;;;;;;4912826;29;20058;-75
2023/08/21 01:58:02;;;;;;;2.53;0.52;;;18.30;65.30;;;;;;4915143;29;20570;-75
2023/08/21 02:00:28;;;;;;;1.60;0.60;;;18.30;65.30;;;;;;4920456;29;20067;-75
2023/08/21 02:02:54;;;;;;;1.05;0.40;;;18.30;65.30;;;;;;4905054;29;20048;-75
2023/08/21 02:05:19;;;;;;;0.90;0.60;;;18.20;65.30;;;;;;4920709;29;20043;-75
2023/08/21 02:07:45;;;;;;;1.35;0.38;;;18.20;65.40;;;;;;4922615;29;20451;-75
2023/08/21 02:10:11;;;;;;;2.80;1.05;;;18.20;65.50;;;;;;4938440;29;20087;-75
2023/08/21 02:12:37;;;;;;;1.27;0.43;;;18.10;65.50;;;;;;4911233;29;20075;-75
2023/08/21 02:15:03;;;;;;;1.48;0.50;;;18.10;65.50;;;;;;4939122;29;20044;-75
2023/08/21 02:17:29;;;;;;;0.47;0.30;;;18.10;65.50;;;;;;4938242;28;20039;-75
2023/08/21 02:19:55;;;;;;;0.80;0.50;;;18.10;65.70;;;;;;4928361;29;20439;-75
2023/08/21 02:22:21;;;;;;;1.20;0.50;;;18.10;65.70;;;;;;4904521;29;20040;-75
2023/08/21 02:24:47;;;;;;;0.43;0.40;;;18.10;65.70;;;;;;4937297;29;20187;-75
2023/08/21 02:27:12;;;;;;;0.93;0.40;;;18.10;65.70;;;;;;4922792;29;20164;-75
2023/08/21 02:29:38;;;;;;;0.63;0.40;;;18.00;65.60;;;;;;4904364;29;20095;-75
2023/08/21 02:32:04;;;;;;;0.90;0.63;;;18.00;65.60;;;;;;4924426;29;20046;-75
2023/08/21 02:34:30;;;;;;;0.93;0.30;;;18.00;65.50;;;;;;4908002;29;20040;-75
2023/08/21 02:36:55;;;;;;;0.70;0.55;;;18.00;65.60;;;;;;4904502;29;20051;-75
2023/08/21 02:39:21;;;;;;;1.00;0.50;;;17.90;65.60;;;;;;4919704;29;20536;-75
2023/08/21 02:41:47;;;;;;;1.02;0.47;;;17.90;65.40;;;;;;4904117;29;20047;-74
2023/08/21 02:44:12;;;;;;;1.77;0.40;;;17.90;65.30;;;;;;4912630;29;20074;-75
2023/08/21 02:46:38;;;;;;;0.80;0.38;;;17.90;65.40;;;;;;4919505;29;20043;-75
2023/08/21 02:49:04;;;;;;;1.15;0.40;;;17.90;65.40;;;;;;4919780;29;20043;-75
2023/08/21 02:51:30;;;;;;;0.50;0.32;;;17.80;65.40;;;;;;4919300;29;20499;-75
2023/08/21 02:53:55;;;;;;;1.67;0.40;;;17.80;65.50;;;;;;4933301;29;20101;-75
2023/08/21 02:56:21;;;;;;;1.27;0.30;;;17.80;65.50;;;;;;4938585;29;20447;-75
2023/08/21 02:58:47;;;;;;;1.65;0.60;;;17.80;65.40;;;;;;4927223;29;20044;-75
2023/08/21 03:01:12;;;;;;;0.32;0.30;;;17.80;65.30;;;;;;4904757;29;20036;-75
2023/08/21 03:03:38;;;;;;;1.33;0.45;;;17.70;65.30;;;;;;4915087;29;20122;-75
2023/08/21 03:06:04;;;;;;;1.85;0.50;;;17.70;65.50;;;;;;4922246;29;20483;-75
2023/08/21 03:08:30;;;;;;;1.60;0.40;;;17.70;65.00;;;;;;4919306;29;20107;-75
2023/08/21 03:10:55;;;;;;;1.60;0.50;;;17.70;65.30;;;;;;4888614;29;20547;-75
2023/08/21 03:13:21;;;;;;;1.27;0.45;;;17.60;65.40;;;;;;4904086;29;20075;-75
2023/08/21 03:15:47;;;;;;;0.43;0.40;;;17.60;65.50;;;;;;4903296;29;20044;-75
2023/08/21 03:18:12;;;;;;;1.23;0.60;;;17.60;65.60;;;;;;4915412;29;20069;-74
2023/08/21 03:20:43;;;;;;;1.67;0.47;;;17.60;66.10;;;;;;4922301;29;20043;-74
2023/08/21 03:23:09;;;;;;;1.95;0.55;;;17.50;65.60;;;;;;4915553;29;20050;-74
2023/08/21 03:25:34;;;;;;;0.75;0.40;;;17.50;65.50;;;;;;4912120;29;20043;-74
2023/08/21 03:28:00;;;;;;;0.50;0.22;;;17.50;65.70;;;;;;4921984;29;20046;-74
2023/08/21 03:30:26;;;;;;;1.65;0.30;;;17.50;65.90;;;;;;4924824;29;20061;-74
2023/08/21 03:32:51;;;;;;;0.73;0.40;;;17.50;66.00;;;;;;4923415;29;20541;-74
2023/08/21 03:35:17;;;;;;;0.63;0.40;;;17.40;65.70;;;;;;4921610;29;20101;-74
2023/08/21 03:37:43;;;;;;;0.82;0.50;;;17.40;65.40;;;;;;4937429;29;20121;-74
2023/08/21 03:40:09;;;;;;;1.02;0.50;;;17.40;65.50;;;;;;4937857;29;20553;-74
2023/08/21 03:42:34;;;;;;;1.75;0.45;;;17.30;65.50;;;;;;4919499;29;20044;-74
2023/08/21 03:45:01;;;;;;;1.08;0.40;;;17.30;65.50;;;;;;4918911;29;20040;-74
2023/08/21 03:47:26;;;;;;;0.68;0.40;;;17.30;65.60;;;;;;4919056;29;20083;-74
2023/08/21 03:49:52;;;;;;;1.15;0.57;;;17.30;65.60;;;;;;4933454;29;20410;-74
2023/08/21 03:52:18;;;;;;;1.85;0.50;;;17.30;65.70;;;;;;4916107;29;20051;-74
2023/08/21 03:54:43;;;;;;;2.70;0.98;;;17.20;65.70;;;;;;4918836;29;20621;-74
2023/08/21 03:57:09;;;;;;;0.38;0.38;;;17.20;65.90;;;;;;4924525;29;20054;-74
2023/08/21 03:59:35;;;;;;;2.17;0.80;;;17.20;66.10;;;;;;4919287;29;20050;-74
2023/08/21 04:02:00;;;;;;;1.90;0.80;;;17.20;66.20;;;;;;4950405;29;20075;-74
2023/08/21 04:04:26;;;;;;;1.85;0.68;;;17.20;66.30;;;;;;4953607;28;20042;-75
2023/08/21 04:06:52;;;;;;;2.50;0.60;;;17.10;66.20;;;;;;4935555;29;20451;-74
2023/08/21 04:09:17;;;;;;;2.38;0.63;;;17.10;66.10;;;;;;4937443;29;20098;-74
2023/08/21 04:11:43;;;;;;;1.25;0.50;;;17.20;66.30;;;;;;4937473;29;20102;-74
2023/08/21 04:14:09;;;;;;;0.52;0.32;;;17.10;66.20;;;;;;4901922;29;20543;-74
2023/08/21 04:16:35;;;;;;;0.75;0.50;;;17.10;66.30;;;;;;4918753;29;20051;-74
2023/08/21 04:19:00;;;;;;;1.95;0.50;;;17.10;66.30;;;;;;4902929;29;20475;-74
2023/08/21 04:21:26;;;;;;;1.25;0.60;;;17.10;66.20;;;;;;4902481;29;20039;-74
2023/08/21 04:23:53;;;;;;;0.95;0.40;;;17.10;66.10;;;;;;4930616;29;20051;-73
2023/08/21 04:26:19;;;;;;;0.80;0.50;;;17.10;66.00;;;;;;4937214;29;20051;-74
2023/08/21 04:28:46;;;;;;;1.52;0.85;;;17.10;65.70;;;;;;4921051;29;20044;-75
2023/08/21 04:31:12;;;;;;;0.88;0.60;;;17.00;65.60;;;;;;4937080;29;20110;-74
2023/08/21 04:33:37;;;;;;;1.40;0.90;;;17.00;65.40;;;;;;4910258;29;20047;-74
2023/08/21 04:36:03;;;;;;;1.05;0.73;;;17.00;65.30;;;;;;4902409;29;20127;-75
2023/08/21 04:38:29;;;;;;;2.08;0.40;;;17.00;65.40;;;;;;4918417;29;20036;-75
2023/08/21 04:40:55;;;;;;;1.25;0.50;;;17.00;65.70;;;;;;4918246;29;20425;-74
2023/08/21 04:43:20;;;;;;;1.90;0.50;;;17.00;65.60;;;;;;4905197;29;20119;-74
2023/08/21 04:45:52;;;;;;;1.23;0.68;;;17.00;65.50;;;;;;4920791;29;20051;-74
2023/08/21 04:48:19;;;;;;;1.58;0.70;;;17.00;65.50;;;;;;4936888;29;20507;-74
2023/08/21 04:50:46;;;;;;;2.20;0.70;;;16.90;65.50;;;;;;4928947;29;20094;-75
2023/08/21 04:53:12;;;;;;;1.83;0.50;;;16.90;65.50;;;;;;4924053;29;20544;-74
2023/08/21 04:55:40;;;;;;;1.70;0.50;;;16.90;65.70;;;;;;4914900;29;20044;-74
2023/08/21 04:58:06;;;;;;;1.35;0.60;;;16.90;65.70;;;;;;4914880;29;20052;-74
2023/08/21 05:00:32;;;;;;;1.02;0.70;;;16.80;66.20;;;;;;4913981;29;20043;-74
2023/08/21 05:02:58;;;;;;;2.33;0.80;;;16.90;65.90;;;;;;4925306;29;20040;-74
2023/08/21 05:05:24;;;;;;;1.90;0.77;;;16.90;65.80;;;;;;4933826;29;20040;-75
2023/08/21 05:07:49;;;;;;;0.90;0.70;;;16.80;65.70;;;;;;4919368;29;20127;-74
2023/08/21 05:10:15;;;;;;;1.92;0.77;;;16.80;65.70;;;;;;4921301;29;20043;-74
2023/08/21 05:12:41;;;;;;;1.25;0.57;;;16.70;65.80;;;;;;4935003;29;20048;-74
2023/08/21 05:15:07;;;;;;;1.75;0.90;;;16.80;65.90;;;;;;4908482;29;20106;-74
2023/08/21 05:17:33;;;;;;;1.88;0.90;;;16.80;65.90;;;;;;4922854;29;20040;-74
2023/08/21 05:19:58;;;;;;;1.45;0.90;;;16.80;66.10;;;;;;4918289;29;20114;-74
2023/08/21 05:22:24;;;;;;;2.28;0.80;;;16.80;66.20;;;;;;4917801;29;20099;-74
2023/08/21 05:24:50;;;;;;;3.53;1.10;;;16.80;66.30;;;;;;4917970;29;20069;-74
2023/08/21 05:27:16;;;;;;;1.20;0.82;;;16.80;66.40;;;;;;4915015;29;20044;-75
2023/08/21 05:29:41;;;;;;;4.03;1.00;;;16.80;66.60;;;;;;4904086;29;20507;-74
2023/08/21 05:32:07;;;;;;;2.90;0.98;;;16.80;66.80;;;;;;4919947;29;20054;-74
2023/08/21 05:34:33;;;;;;;3.58;1.23;;;16.80;66.90;;;;;;4906938;29;20044;-74
2023/08/21 05:36:58;;;;;;;1.42;0.90;;;16.80;67.10;;;;;;4918047;29;20040;-74
2023/08/21 05:39:24;;;;;;;3.33;0.90;;;16.80;67.30;;;;;;4917737;29;20040;-74
2023/08/21 05:41:50;;;;;;;1.40;0.80;;;16.80;67.50;;;;;;4901901;29;20051;-74
2023/08/21 05:44:16;;;;;;;1.92;0.90;;;16.80;67.70;;;;;;4917847;29;20067;-74
2023/08/21 05:46:41;;;;;;;3.17;1.10;;;16.80;67.90;;;;;;4917515;29;20040;-74
2023/08/21 05:49:07;;;;;;;4.10;1.15;;;16.90;68.10;;;;;;4901750;29;20048;-75
2023/08/21 05:51:33;;;;;;;1.73;0.98;;;16.90;68.20;;;;;;4901728;29;20052;-74
2023/08/21 05:53:59;;;;;;;3.53;1.30;;;16.90;68.30;;;;;;4901439;29;20040;-74
2023/08/21 05:56:25;;;;;;;1.92;1.30;;;17.00;68.60;;;;;;4901612;29;20040;-74
2023/08/21 05:58:50;;;;;;;4.22;1.55;;;17.00;69.20;;;;;;4906796;29;20393;-74
2023/08/21 06:01:16;;;;;;;3.25;1.52;;;17.00;70.10;;;;;;4912124;29;20560;-74
2023/08/21 06:03:43;;;;;;;2.60;1.30;;;17.10;71.10;;;;;;4892468;29;20044;-74
2023/08/21 06:06:08;;;;;;;3.80;1.50;;;17.30;72.00;;;;;;4898398;29;20040;-74
2023/08/21 06:08:34;;;;;;;4.28;1.60;;;17.50;72.40;;;;;;4914644;29;20111;-74
2023/08/21 06:11:00;;;;;;;4.55;2.20;;;17.90;72.50;;;;;;4901157;29;20047;-74
2023/08/21 06:13:26;;;;;;;4.13;2.00;;;18.30;72.30;;;;;;4916958;29;20106;-74
2023/08/21 06:15:53;;;;;;;6.05;2.28;;;18.70;71.80;;;;;;4901277;29;20047;-74
2023/08/21 06:18:18;;;;;;;7.55;2.55;;;19.10;71.40;;;;;;4901574;29;20135;-74
2023/08/21 06:20:44;;;;;;;4.38;1.77;;;19.50;70.90;;;;;;4900954;29;20051;-74
2023/08/21 06:23:10;;;;;;;4.25;2.22;;;19.80;70.40;;;;;;4885889;29;20543;-75
2023/08/21 06:25:36;;;;;;;5.28;2.20;;;20.10;69.50;;;;;;4901295;29;20042;-75
2023/08/21 06:28:03;;;;;;;5.03;2.10;;;20.50;68.80;;;;;;4917100;29;20414;-74
2023/08/21 06:30:28;;;;;;;3.28;1.73;;;20.90;68.00;;;;;;4916865;29;20048;-74
2023/08/21 06:32:55;;;;;;;3.17;1.95;;;21.30;67.20;;;;;;4901091;29;20074;-75
2023/08/21 06:35:21;;;;;;;6.55;2.08;;;21.70;66.40;;;;;;4916380;29;20044;-75
2023/08/21 06:37:46;;;;;;;6.88;2.90;;;22.00;65.40;;;;;;4900653;29;20074;-75
2023/08/21 06:40:12;;;;;;;4.80;1.70;;;22.40;64.60;;;;;;4901015;29;20118;-75
2023/08/21 06:42:38;;;;;;;4.80;2.13;;;22.70;63.80;;;;;;4916538;29;20047;-74
2023/08/21 06:45:07;;;;;;;4.30;2.30;;;23.10;63.00;;;;;;4900722;29;20156;-75
2023/08/21 06:47:33;;;;;;;5.05;1.90;;;23.30;62.30;;;;;;4916323;29;20055;-75
2023/08/21 06:50:00;;;;;;;5.53;2.13;;;23.60;61.60;;;;;;4916694;29;20044;-75
2023/08/21 06:52:26;;;;;;;3.65;1.73;;;23.90;61.30;;;;;;4918286;29;20143;-75
2023/08/21 06:54:52;;;;;;;3.97;1.48;;;24.10;61.00;;;;;;4903802;29;20054;-75
2023/08/21 06:57:17;;;;;;;5.90;1.92;;;24.40;60.20;;;;;;4935542;29;20052;-75
2023/08/21 06:59:43;;;;;;;5.53;1.67;;;24.60;59.90;;;;;;4919474;29;20502;-75
2023/08/21 07:02:09;;;;;;;4.47;1.38;;;24.90;59.30;;;;;;4929705;29;20175;-74
2023/08/21 07:04:35;;;;;;;5.95;1.80;;;25.20;58.60;;;;;;4935155;29;20047;-74
2023/08/21 07:07:01;;;;;;;4.20;1.50;;;25.40;58.10;;;;;;4918982;29;20059;-73
2023/08/21 07:09:27;;;;;;;4.57;1.67;;;25.70;57.60;;;;;;4934940;29;20398;-74
2023/08/21 07:11:52;;;;;;;5.80;1.58;;;26.00;57.10;;;;;;4934961;29;20040;-73
2023/08/21 07:14:19;;;;;;;5.30;1.40;;;26.30;56.80;;;;;;4933846;29;20095;-74
2023/08/21 07:16:45;;;;;;;5.38;1.55;;;26.50;55.90;;;;;;4931637;29;20043;-74
2023/08/21 07:19:11;;;;;;;4.03;1.38;;;26.60;55.80;;;;;;4932728;29;20069;-73
2023/08/21 07:21:38;;;;;;;5.88;1.40;;;26.70;55.70;;;;;;4903519;29;20032;-73
2023/08/21 07:24:04;;;;;;;4.43;1.30;;;26.70;55.20;;;;;;4900995;29;20044;-74
2023/08/21 07:26:30;;;;;;;3.38;1.13;;;26.90;54.90;;;;;;4921241;29;20040;-73
2023/08/21 07:28:55;;;;;;;3.92;1.00;;;26.90;54.20;;;;;;4924022;29;20039;-74
2023/08/21 07:31:21;;;;;;;3.50;1.13;;;26.90;54.00;;;;;;4901986;29;20125;-73
2023/08/21 07:33:47;;;;;;;5.13;1.48;;;27.00;53.90;;;;;;4918856;29;20118;-74
2023/08/21 07:36:16;;;;;;;3.85;1.17;;;27.10;53.50;;;;;;4929834;29;20119;-74
2023/08/21 07:38:43;;;;;;;2.53;0.85;;;27.20;53.40;;;;;;4932581;29;20044;-73
2023/08/21 07:41:10;;;;;;;5.05;1.08;;;27.30;52.60;;;;;;4902962;29;20048;-73
2023/08/21 07:43:36;;;;;;;4.22;0.98;;;27.40;52.00;;;;;;4915845;29;20036;-74
2023/08/21 07:46:04;;;;;;;2.70;0.90;;;27.40;51.20;;;;;;4921035;29;20043;-73
2023/08/21 07:48:30;;;;;;;2.55;0.80;;;27.40;50.30;;;;;;4916192;29;20058;-73
2023/08/21 07:50:55;;;;;;;4.93;1.40;;;27.40;49.80;;;;;;4928416;29;20492;-74
2023/08/21 07:53:22;;;;;;;3.40;1.20;;;27.50;49.60;;;;;;4884124;29;20611;-74
2023/08/21 07:55:48;;;;;;;2.88;0.80;;;27.50;49.10;;;;;;4916103;29;20043;-74
2023/08/21 07:58:13;;;;;;;4.75;1.08;;;27.60;49.40;;;;;;4948520;28;20031;-74
2023/08/21 08:00:39;;;;;;;2.65;0.80;;;27.70;49.10;;;;;;4917072;29;20036;-74
2023/08/21 08:03:08;;;;;;;3.22;0.82;;;27.90;48.20;;;;;;4904118;29;20044;-74
2023/08/21 08:05:34;;;;;;;2.75;0.93;;;28.00;47.30;;;;;;4899914;29;20048;-74
2023/08/21 08:08:00;;;;;;;3.80;1.15;;;28.30;46.60;;;;;;4929353;29;20503;-74
2023/08/21 08:10:26;;;;;;;4.20;0.80;;;28.40;46.10;;;;;;4915619;29;20040;-74
2023/08/21 08:12:53;;;;;;;5.43;1.40;;;28.50;45.50;;;;;;4915571;29;20497;-74
2023/08/21 08:15:19;;;;;;;4.00;1.35;;;28.60;44.90;;;;;;4916383;29;20040;-74
2023/08/21 08:17:51;;;;;;;4.53;1.52;;;28.70;44.10;;;;;;4910565;29;20036;-73
2023/08/21 08:20:18;;;;;;;2.70;0.80;;;28.70;43.00;;;;;;4900484;29;20131;-74
2023/08/21 08:22:43;;;;;;;3.88;1.20;;;28.70;43.40;;;;;;4922313;29;20056;-74
2023/08/21 08:25:10;;;;;;;2.55;0.93;;;28.80;44.00;;;;;;4915226;29;20048;-73
2023/08/21 08:27:36;;;;;;;2.55;0.90;;;28.90;44.90;;;;;;4911466;29;20048;-73
2023/08/21 08:30:03;;;;;;;8.10;2.63;;;29.00;44.60;;;;;;4932077;29;20403;-72
2023/08/21 08:32:28;;;;;;;6.63;2.60;;;29.10;44.50;;;;;;4920623;29;20123;-73
2023/08/21 08:34:54;;;;;;;4.32;1.27;;;29.20;44.50;;;;;;4906255;29;20144;-73
2023/08/21 08:37:20;;;;;;;4.35;1.27;;;29.30;44.70;;;;;;4934993;29;20050;-74
2023/08/21 08:39:48;;;;;;;3.38;1.48;;;29.40;44.10;;;;;;4933886;29;20060;-73
2023/08/21 08:42:16;;;;;;;3.33;1.15;;;29.60;44.20;;;;;;4934666;29;20039;-73
2023/08/21 08:44:43;;;;;;;3.63;1.35;;;29.70;43.80;;;;;;4923666;29;20047;-74
2023/08/21 08:47:11;;;;;;;4.70;1.35;;;29.70;43.40;;;;;;4926747;29;20047;-74
2023/08/21 08:49:40;;;;;;;5.30;2.03;;;29.80;43.30;;;;;;4928630;29;20048;-73
2023/08/21 08:52:07;;;;;;;5.25;2.05;;;29.90;43.50;;;;;;4925517;29;20051;-73
2023/08/21 08:54:35;;;;;;;4.05;1.00;;;30.00;43.20;;;;;;4930038;29;20059;-73
2023/08/21 08:57:04;;;;;;;4.97;1.65;;;30.10;43.30;;;;;;4921758;29;20689;-73
2023/08/21 08:59:31;;;;;;;3.30;1.33;;;30.10;43.00;;;;;;4913842;29;20208;-73
2023/08/21 09:01:57;;;;;;;4.45;1.60;;;30.10;42.60;;;;;;4929092;29;20043;-73
2023/08/21 09:04:23;;;;;;;5.00;1.50;;;30.20;42.60;;;;;;4922029;29;20047;-73
2023/08/21 09:06:48;;;;;;;3.60;1.27;;;30.20;42.20;;;;;;4920660;29;20039;-73
2023/08/21 09:09:14;;;;;;;3.17;1.45;;;30.30;42.30;;;;;;4910241;29;20048;-73
2023/08/21 09:11:44;;;;;;;4.57;1.45;;;30.20;40.70;;;;;;4915693;29;20047;-73
2023/08/21 09:14:10;;;;;;;3.63;1.25;;;30.20;41.40;;;;;;4918476;29;20044;-73
2023/08/21 09:16:36;;;;;;;4.13;1.67;;;30.10;40.50;;;;;;4928202;29;20059;-73
2023/08/21 09:19:02;;;;;;;5.47;1.90;;;30.10;41.00;;;;;;4920588;29;20155;-73
2023/08/21 09:21:28;;;;;;;4.28;1.10;;;30.10;41.30;;;;;;4908078;29;20071;-73
2023/08/21 09:24:04;;;;;;;4.57;1.58;;;30.10;41.80;;;;;;4921225;29;20111;-73
2023/08/21 09:26:34;;;;;;;4.63;1.50;;;30.10;42.00;;;;;;4928580;29;20396;-73
2023/08/21 09:29:04;;;;;;;4.80;1.85;;;30.20;42.00;;;;;;4912206;29;20047;-73
2023/08/21 09:31:32;;;;;;;6.40;1.90;;;30.30;41.10;;;;;;4928430;29;20071;-73
2023/08/21 09:34:06;;;;;;;4.70;1.45;;;30.30;40.60;;;;;;4920451;29;20079;-73
2023/08/21 09:36:33;;;;;;;5.38;2.33;;;30.30;41.20;;;;;;4925061;29;20115;-75
2023/08/21 09:38:58;;;;;;;5.60;1.90;;;30.30;41.80;;;;;;4926846;29;20479;-73
2023/08/21 09:41:25;;;;;;;2.88;1.40;;;30.40;41.80;;;;;;4926587;29;20119;-73
2023/08/21 09:43:51;;;;;;;3.80;1.20;;;30.40;41.60;;;;;;4923163;29;20071;-73
2023/08/21 09:46:23;;;;;;;4.53;0.90;;;30.50;41.60;;;;;;4908510;29;20043;-72
2023/08/21 09:49:03;;;;;;;4.57;1.52;;;30.50;41.20;;;;;;4925482;29;20040;-73
2023/08/21 09:51:29;;;;;;;4.53;1.38;;;30.60;40.50;;;;;;4872042;29;20099;-73
2023/08/21 09:53:56;;;;;;;5.10;1.77;;;30.70;40.70;;;;;;4905017;29;20492;-73
2023/08/21 09:56:22;;;;;;;3.55;1.27;;;30.70;40.60;;;;;;4905590;29;20079;-74
2023/08/21 09:58:49;;;;;;;4.00;1.25;;;30.70;40.50;;;;;;4876149;29;20071;-73
2023/08/21 10:01:17;;;;;;;3.17;1.00;;;30.80;40.50;;;;;;4903115;29;20103;-73
2023/08/21 10:03:47;;;;;;;5.40;1.30;;;30.80;40.50;;;;;;4900286;29;20405;-74
2023/08/21 10:06:18;;;;;;;3.25;1.02;;;30.80;40.40;;;;;;4919306;29;20551;-74
2023/08/21 10:08:47;;;;;;;3.45;1.33;;;30.80;40.70;;;;;;4905142;29;20044;-74
2023/08/21 10:11:14;;;;;;;4.28;1.05;;;30.80;40.30;;;;;;4904370;29;20127;-74
2023/08/21 10:13:40;;;;;;;4.53;0.80;;;30.80;39.70;;;;;;4921440;29;20507;-74
2023/08/21 10:16:07;;;;;;;2.60;0.90;;;30.80;40.40;;;;;;4904301;29;20467;-74
2023/08/21 10:18:36;;;;;;;3.80;1.40;;;30.80;40.80;;;;;;4900995;29;20066;-74
2023/08/21 10:21:17;;;;;;;4.30;1.30;;;30.80;40.80;;;;;;4901763;29;20044;-74
2023/08/21 10:23:47;;;;;;;2.92;1.00;;;30.80;40.90;;;;;;4903037;29;20036;-75
2023/08/21 10:26:13;;;;;;;2.70;1.02;;;30.90;40.70;;;;;;4919076;29;21585;-77
2023/08/21 10:28:54;;;;;;;4.07;1.00;;;31.00;40.60;;;;;;4904085;29;20080;-75
2023/08/21 10:31:39;;;;;;;3.78;1.45;;;31.10;40.40;;;;;;4904925;29;20043;-75
2023/08/21 10:34:06;;;;;;;3.53;1.20;;;31.10;39.50;;;;;;4921581;29;20100;-75
2023/08/21 10:36:44;;;;;;;3.00;0.95;;;31.10;39.90;;;;;;4888411;29;20051;-75
2023/08/21 10:39:14;;;;;;;3.55;1.00;;;31.10;40.10;;;;;;4900761;29;20032;-75
2023/08/21 10:41:41;;;;;;;3.25;0.93;;;31.10;39.10;;;;;;4869942;29;20044;-75
2023/08/21 10:44:08;;;;;;;2.55;0.70;;;31.10;39.20;;;;;;4886803;29;20068;-75
2023/08/21 10:46:52;;;;;;;4.20;1.13;;;31.10;39.50;;;;;;4887816;29;20044;-75
2023/08/21 10:49:18;;;;;;;4.60;0.90;;;31.00;39.70;;;;;;4890936;29;20044;-75
2023/08/21 10:51:44;;;;;;;4.35;1.35;;;31.10;40.00;;;;;;4915707;29;20055;-75
2023/08/21 10:54:12;;;;;;;4.75;1.27;;;31.00;39.70;;;;;;4929481;29;20043;-75
2023/08/21 10:56:38;;;;;;;3.40;1.15;;;31.10;39.70;;;;;;4929725;29;20050;-75
2023/08/21 10:59:04;;;;;;;4.15;1.15;;;31.10;39.90;;;;;;4914029;29;20043;-75
2023/08/21 11:01:51;;;;;;;5.00;1.60;;;31.10;40.00;;;;;;4929703;29;20036;-75
2023/08/21 11:04:17;;;;;;;4.60;0.98;;;31.20;39.70;;;;;;4928620;29;20052;-76
2023/08/21 11:06:43;;;;;;;4.32;1.15;;;31.20;39.70;;;;;;4929264;29;20053;-75
2023/08/21 11:09:16;;;;;;;4.55;1.15;;;31.10;39.90;;;;;;4913732;29;20067;-75
2023/08/21 11:11:43;;;;;;;4.57;1.30;;;31.20;40.10;;;;;;4928894;29;20118;-75
2023/08/21 11:14:09;;;;;;;3.10;0.80;;;31.10;39.90;;;;;;4928697;29;20090;-75
2023/08/21 11:16:35;;;;;;;5.55;1.27;;;31.10;39.50;;;;;;4928252;29;20039;-75
2023/08/21 11:19:07;;;;;;;3.78;1.35;;;31.00;39.80;;;;;;4927930;29;20046;-75
2023/08/21 11:21:33;;;;;;;5.70;1.37;;;31.10;40.20;;;;;;4928706;29;20044;-75
2023/08/21 11:23:59;;;;;;;4.80;2.13;;;31.00;40.10;;;;;;4927947;29;20291;-75
2023/08/21 11:26:25;;;;;;;3.42;1.10;;;31.00;39.80;;;;;;4897437;29;20087;-75
2023/08/21 11:28:51;;;;;;;5.28;1.40;;;31.00;40.40;;;;;;4913423;29;20447;-75
2023/08/21 11:31:17;;;;;;;5.13;1.30;;;31.00;40.50;;;;;;4912702;29;20043;-75
2023/08/21 11:33:49;;;;;;;4.90;1.42;;;31.00;40.50;;;;;;4928138;29;20036;-76
2023/08/21 11:36:15;;;;;;;4.38;1.05;;;31.00;40.10;;;;;;4928646;29;20040;-75
2023/08/21 11:38:41;;;;;;;3.67;1.00;;;31.00;39.20;;;;;;4912439;29;20388;-75
2023/08/21 11:41:07;;;;;;;4.38;1.20;;;30.90;39.20;;;;;;4928621;29;20495;-75
2023/08/21 11:43:40;;;;;;;5.00;1.30;;;31.00;39.50;;;;;;4927796;29;20067;-75
2023/08/21 11:46:08;;;;;;;3.55;1.30;;;31.00;39.80;;;;;;4928122;29;20121;-75
2023/08/21 11:48:39;;;;;;;3.75;1.17;;;30.90;39.40;;;;;;4928806;29;20409;-75
2023/08/21 11:51:05;;;;;;;3.85;1.23;;;30.90;39.80;;;;;;4926962;29;20135;-75
2023/08/21 11:53:32;;;;;;;5.20;1.40;;;30.80;39.70;;;;;;4905106;29;20491;-75
2023/08/21 11:55:57;;;;;;;3.55;1.00;;;30.80;39.60;;;;;;4922238;29;20507;-75
2023/08/21 11:58:23;;;;;;;3.90;1.00;;;30.80;39.60;;;;;;4919179;29;20048;-75
2023/08/21 12:00:49;;;;;;;4.65;0.90;;;30.80;39.10;;;;;;4920984;29;20479;-75
2023/08/21 12:03:18;;;;;;;6.68;1.38;;;30.80;39.80;;;;;;4918839;29;20555;-75
2023/08/21 12:05:44;;;;;;;4.22;0.93;;;30.80;40.00;;;;;;4919881;29;20043;-75
2023/08/21 12:08:10;;;;;;;4.55;1.20;;;30.80;39.90;;;;;;4919312;29;20047;-75
2023/08/21 12:10:36;;;;;;;5.13;1.50;;;30.80;40.00;;;;;;4904736;29;20469;-75
2023/08/21 12:13:02;;;;;;;4.20;1.02;;;30.80;39.80;;;;;;4919139;29;20483;-75
2023/08/21 12:15:28;;;;;;;4.55;1.50;;;30.80;39.90;;;;;;4905683;29;20054;-75
2023/08/21 12:17:53;;;;;;;3.90;1.08;;;30.80;40.00;;;;;;4905003;29;20882;-75
2023/08/21 12:20:19;;;;;;;2.15;0.70;;;30.80;39.80;;;;;;4908066;29;20080;-75
2023/08/21 12:22:45;;;;;;;4.47;1.20;;;30.80;39.60;;;;;;4907263;29;20032;-75
2023/08/21 12:25:11;;;;;;;6.82;1.33;;;30.80;39.70;;;;;;4923371;29;20119;-75
2023/08/21 12:27:37;;;;;;;3.60;1.02;;;30.80;39.60;;;;;;4923331;29;20048;-76
2023/08/21 12:30:04;;;;;;;3.28;1.30;;;30.70;39.50;;;;;;4922995;29;20065;-75
2023/08/21 12:32:30;;;;;;;6.05;1.38;;;30.70;39.40;;;;;;4922954;29;20094;-75
2023/08/21 12:34:55;;;;;;;2.97;0.80;;;30.70;39.50;;;;;;4910400;29;20399;-75
2023/08/21 12:37:21;;;;;;;4.75;1.00;;;30.70;39.60;;;;;;4908209;29;20036;-75
2023/08/21 12:39:47;;;;;;;3.80;1.20;;;30.70;39.60;;;;;;4922577;29;20046;-75
2023/08/21 12:42:13;;;;;;;3.17;0.90;;;30.60;39.80;;;;;;4922566;29;20118;-75
2023/08/21 12:44:39;;;;;;;2.97;0.80;;;30.50;39.90;;;;;;4921710;29;20088;-75
2023/08/21 12:47:06;;;;;;;3.40;0.90;;;30.50;40.10;;;;;;4908597;29;20059;-75